createdAt,value
2019-03-06T00:01:17.778Z,100386.26
2019-03-06T00:07:23.993Z,100393.72
2019-03-06T00:13:30.275Z,100377.98
2019-03-06T00:19:36.134Z,100367.03
2019-03-06T00:25:42.037Z,100365.70
2019-03-06T00:31:48.064Z,100358.73
2019-03-06T00:37:53.811Z,100344.70
2019-03-06T00:43:59.610Z,100343.00
2019-03-06T00:50:05.930Z,100342.98
2019-03-06T00:56:12.068Z,100340.80
2019-03-06T01:02:18.160Z,100330.73
2019-03-06T01:08:24.198Z,100324.60
2019-03-06T01:14:29.960Z,100320.67
2019-03-06T01:20:35.806Z,100322.86
2019-03-06T01:26:42.272Z,100317.59
2019-03-06T01:32:50.529Z,100309.76
2019-03-06T01:39:21.268Z,100302.28
2019-03-06T01:45:27.212Z,100284.37
2019-03-06T01:51:33.183Z,100275.61
2019-03-06T01:57:39.307Z,100268.17
2019-03-06T02:03:45.159Z,100246.73
2019-03-06T02:09:50.875Z,100245.00
2019-03-06T02:15:56.718Z,100239.75
2019-03-06T02:22:02.458Z,100230.13
2019-03-06T02:28:08.978Z,100235.38
2019-03-06T02:34:14.728Z,100225.31
2019-03-06T02:40:20.413Z,100215.25
2019-03-06T02:46:26.221Z,100194.27
2019-03-06T02:52:32.170Z,100175.89
2019-03-06T02:59:01.356Z,100168.02
2019-03-06T03:05:17.910Z,100161.88
2019-03-06T03:11:23.908Z,100157.08
2019-03-06T03:17:29.717Z,100137.39
2019-03-06T03:23:35.549Z,100130.38
2019-03-06T03:29:41.392Z,100127.31
2019-03-06T03:35:47.160Z,100120.78
2019-03-06T03:41:52.979Z,100117.22
2019-03-06T03:47:58.760Z,100114.16
2019-03-06T03:54:04.704Z,100112.37
2019-03-06T04:00:13.227Z,100104.05
2019-03-06T04:06:18.965Z,100095.69
2019-03-06T04:12:24.651Z,100095.23
2019-03-06T04:18:30.403Z,100087.36
2019-03-06T04:24:36.423Z,100083.39
2019-03-06T04:30:42.136Z,100075.47
2019-03-06T04:36:48.196Z,100085.08
2019-03-06T04:42:54.184Z,100075.84
2019-03-06T04:48:59.873Z,100068.38
2019-03-06T04:55:06.433Z,100048.76
2019-03-06T05:01:12.335Z,100044.45
2019-03-06T05:07:18.141Z,100031.32
2019-03-06T05:13:25.371Z,100024.30
2019-03-06T05:19:31.532Z,100012.89
2019-03-06T05:25:37.492Z,100007.23
2019-03-06T05:32:38.718Z,100010.27
2019-03-06T05:39:02.270Z,99988.40
2019-03-06T05:45:08.551Z,99964.77
2019-03-06T05:51:14.387Z,99964.32
2019-03-06T05:57:20.120Z,99953.45
2019-03-06T06:03:25.970Z,99935.48
2019-03-06T06:09:31.787Z,99922.34
2019-03-06T06:15:37.967Z,99906.09
2019-03-06T06:21:52.823Z,99895.13
2019-03-06T06:27:58.923Z,99878.91
2019-03-06T06:34:04.793Z,99878.47
2019-03-06T06:40:10.926Z,99879.72
2019-03-06T06:46:16.650Z,99879.17
2019-03-06T06:53:27.550Z,99859.95
2019-03-06T07:00:29.858Z,99860.02
2019-03-06T07:06:57.795Z,99842.98
2019-03-06T07:13:16.179Z,99824.52
2019-03-06T07:19:39.998Z,99821.43
2019-03-06T07:26:13.863Z,99798.65
2019-03-06T07:32:35.423Z,99786.34
2019-03-06T07:38:41.629Z,99779.24
2019-03-06T07:46:06.940Z,99786.98
2019-03-06T07:52:24.697Z,99794.32
2019-03-06T07:58:54.306Z,99802.91
2019-03-06T08:05:00.351Z,99788.23
2019-03-06T08:11:09.934Z,99777.46
2019-03-06T08:17:34.511Z,99761.87
2019-03-06T08:23:59.956Z,99753.23
2019-03-06T08:30:09.448Z,99731.08
2019-03-06T08:36:15.170Z,99720.98
2019-03-06T08:42:20.995Z,99732.80
2019-03-06T08:48:40.302Z,99722.80
2019-03-06T08:54:52.035Z,99725.22
2019-03-06T09:01:24.891Z,99716.12
2019-03-06T09:07:59.012Z,99715.61
2019-03-06T09:14:36.101Z,99692.66
2019-03-06T09:20:50.591Z,99682.14
2019-03-06T09:27:30.713Z,99664.05
2019-03-06T09:34:01.736Z,99638.45
2019-03-06T09:40:33.926Z,99636.74
2019-03-06T09:47:04.300Z,99614.83
2019-03-06T09:53:41.334Z,99594.79
2019-03-06T10:00:11.867Z,99583.81
2019-03-06T10:06:27.833Z,99584.34
2019-03-06T10:13:10.910Z,99580.88
2019-03-06T10:19:43.037Z,99572.45
2019-03-06T10:25:49.174Z,99576.58
2019-03-06T10:31:54.869Z,99571.78
2019-03-06T10:38:00.972Z,99567.42
2019-03-06T10:44:29.562Z,99561.76
2019-03-06T10:50:33.603Z,99564.42
2019-03-06T10:56:39.616Z,99566.18
2019-03-06T11:02:45.525Z,99540.48
2019-03-06T11:08:51.440Z,99552.98
2019-03-06T11:14:57.613Z,99534.48
2019-03-06T11:21:03.655Z,99514.58
2019-03-06T11:27:09.854Z,99513.15
2019-03-06T11:33:16.396Z,99489.91
2019-03-06T11:39:23.882Z,99475.08
2019-03-06T11:45:29.970Z,99458.31
2019-03-06T11:51:36.179Z,99447.39
2019-03-06T11:57:42.656Z,99428.56
2019-03-06T12:03:49.362Z,99422.27
2019-03-06T12:09:55.051Z,99412.09
2019-03-06T12:16:00.827Z,99410.83
2019-03-06T12:22:06.927Z,99386.72
2019-03-06T12:28:14.805Z,99396.70
2019-03-06T12:34:20.692Z,99366.66
2019-03-06T12:40:26.845Z,99360.61
2019-03-06T12:46:33.556Z,99356.58
2019-03-06T12:52:39.338Z,99343.26
2019-03-06T12:58:45.174Z,99327.83
2019-03-06T13:04:50.988Z,99327.92
2019-03-06T13:10:58.506Z,99324.75
2019-03-06T13:17:04.262Z,99305.59
2019-03-06T13:23:10.070Z,99296.16
2019-03-06T13:29:15.820Z,99279.39
2019-03-06T13:35:21.948Z,99267.66
2019-03-06T13:41:27.749Z,99253.08
2019-03-06T13:47:33.539Z,99240.63
2019-03-06T13:53:39.408Z,99239.71
2019-03-06T13:59:45.475Z,99259.71
2019-03-06T14:05:51.220Z,99261.09
2019-03-06T14:11:57.076Z,99255.38
2019-03-06T14:18:02.952Z,99275.16
2019-03-06T14:24:08.832Z,99274.67
2019-03-06T14:30:15.903Z,99274.14
2019-03-06T14:36:22.434Z,99276.25
2019-03-06T14:42:28.401Z,99284.83
2019-03-06T14:48:34.389Z,99294.20
2019-03-06T14:54:40.283Z,99289.83
2019-03-06T15:00:46.654Z,99273.70
2019-03-06T15:06:52.354Z,99266.61
2019-03-06T15:12:58.214Z,99247.48
2019-03-06T15:19:05.649Z,99242.47
2019-03-06T15:25:15.602Z,99227.20
2019-03-06T15:31:21.553Z,99214.41
2019-03-06T15:37:28.562Z,99209.92
2019-03-06T15:43:34.997Z,99193.81
2019-03-06T15:49:40.733Z,99186.22
2019-03-06T15:55:46.772Z,99182.77
2019-03-06T16:01:53.111Z,99179.42
2019-03-06T16:07:59.584Z,99154.72
2019-03-06T16:14:05.988Z,99148.63
2019-03-06T16:20:17.344Z,99150.47
2019-03-06T16:26:23.732Z,99150.71
2019-03-06T16:32:29.926Z,99146.59
2019-03-06T16:38:35.716Z,99151.66
2019-03-06T16:44:42.196Z,99141.06
2019-03-06T16:50:47.966Z,99128.70
2019-03-06T16:56:54.082Z,99116.06
2019-03-06T17:03:00.798Z,99128.61
2019-03-06T17:09:25.978Z,99130.67
2019-03-06T17:15:32.757Z,99121.34
2019-03-06T17:21:38.979Z,99126.97
2019-03-06T17:27:44.848Z,99123.28
2019-03-06T17:33:50.729Z,99132.67
2019-03-06T17:39:56.690Z,99128.42
2019-03-06T17:46:02.916Z,99135.16
2019-03-06T17:52:08.926Z,99123.70
2019-03-06T17:58:14.787Z,99116.48
2019-03-06T18:04:22.121Z,99121.69
2019-03-06T18:10:29.931Z,99115.19
2019-03-06T18:16:37.212Z,99115.23
2019-03-06T18:22:43.720Z,99110.50
2019-03-06T18:28:49.656Z,99088.81
2019-03-06T18:34:55.869Z,99078.37
2019-03-06T18:41:01.782Z,99069.27
2019-03-06T18:47:07.525Z,99075.97
2019-03-06T18:53:13.329Z,99064.34
2019-03-06T18:59:19.425Z,99056.52
2019-03-06T19:05:44.169Z,99063.93
2019-03-06T19:11:50.534Z,99053.36
2019-03-06T19:17:56.424Z,99042.67
2019-03-06T19:24:02.291Z,99028.55
2019-03-06T19:30:29.853Z,99020.11
2019-03-06T19:36:35.622Z,99012.91
2019-03-06T19:42:41.862Z,99013.52
2019-03-06T19:48:47.649Z,99010.20
2019-03-06T19:54:53.541Z,99011.81
2019-03-06T20:00:59.464Z,99010.87
2019-03-06T20:07:06.074Z,99009.97
2019-03-06T20:13:12.008Z,99008.31
2019-03-06T20:19:20.621Z,99002.05
2019-03-06T20:25:27.110Z,99002.52
2019-03-06T20:31:33.198Z,98997.94
2019-03-06T20:37:39.326Z,98997.76
2019-03-06T20:43:45.277Z,98994.79
2019-03-06T20:49:51.406Z,98983.03
2019-03-06T20:55:57.396Z,98995.91
2019-03-06T21:02:03.425Z,98989.16
2019-03-06T21:08:09.214Z,98989.68
2019-03-06T21:14:15.338Z,98992.55
2019-03-06T21:20:21.127Z,98987.37
2019-03-06T21:26:26.858Z,98984.48
2019-03-06T21:32:32.817Z,98971.33
2019-03-06T21:38:38.658Z,98956.58
2019-03-06T21:44:44.766Z,98949.55
2019-03-06T21:50:50.649Z,98944.88
2019-03-06T21:56:56.913Z,98941.44
2019-03-06T22:03:02.718Z,98936.96
2019-03-06T22:09:14.711Z,98934.27
2019-03-06T22:15:20.786Z,98930.83
2019-03-06T22:21:26.611Z,98919.14
2019-03-06T22:27:32.427Z,98915.88
2019-03-06T22:33:38.630Z,98907.16
2019-03-06T22:39:44.781Z,98892.27
2019-03-06T22:45:50.603Z,98890.06
2019-03-06T22:51:56.778Z,98887.22
2019-03-06T22:58:03.171Z,98870.41
2019-03-06T23:04:09.404Z,98860.05
2019-03-06T23:10:15.345Z,98845.06
2019-03-06T23:16:21.276Z,98829.75
2019-03-06T23:22:27.188Z,98819.84
2019-03-06T23:28:33.098Z,98809.30
2019-03-06T23:34:39.077Z,98798.33
2019-03-06T23:40:44.911Z,98790.31
2019-03-06T23:46:50.674Z,98778.64
2019-03-06T23:53:01.018Z,98776.42
2019-03-06T23:59:07.053Z,98772.90
